createdAt,value
2019-02-21T00:02:15.052Z,7.30
2019-02-21T00:05:18.678Z,7.34
2019-02-21T00:08:21.383Z,7.28
2019-02-21T00:11:23.921Z,7.26
2019-02-21T00:14:26.590Z,7.31
2019-02-21T00:17:29.194Z,7.31
2019-02-21T00:20:31.983Z,7.24
2019-02-21T00:23:34.591Z,7.23
2019-02-21T00:26:37.203Z,7.18
2019-02-21T00:29:39.762Z,7.16
2019-02-21T00:32:42.367Z,7.17
2019-02-21T00:35:44.983Z,7.19
2019-02-21T00:38:47.542Z,7.20
2019-02-21T00:41:50.243Z,7.27
2019-02-21T00:44:52.853Z,7.24
2019-02-21T00:47:55.534Z,7.22
2019-02-21T00:50:58.250Z,7.20
2019-02-21T00:54:00.982Z,7.15
2019-02-21T00:57:03.532Z,7.09
2019-02-21T01:00:07.741Z,7.13
2019-02-21T01:03:10.330Z,7.15
2019-02-21T01:06:12.989Z,7.15
2019-02-21T01:09:15.592Z,7.12
2019-02-21T01:12:18.241Z,7.15
2019-02-21T01:15:20.941Z,7.07
2019-02-21T01:18:23.586Z,7.04
2019-02-21T01:21:26.134Z,7.05
2019-02-21T01:24:28.944Z,7.01
2019-02-21T01:27:31.672Z,6.98
2019-02-21T01:30:34.547Z,7.03
2019-02-21T01:33:37.180Z,7.03
2019-02-21T01:36:39.856Z,7.03
2019-02-21T01:39:42.554Z,7.02
2019-02-21T01:42:45.137Z,6.89
2019-02-21T01:45:47.839Z,6.96
2019-02-21T01:48:51.542Z,6.98
2019-02-21T01:51:54.198Z,6.88
2019-02-21T01:54:56.741Z,6.97
2019-02-21T01:57:59.483Z,6.98
2019-02-21T02:01:08.604Z,7.05
2019-02-21T02:04:06.475Z,7.01
2019-02-21T02:07:09.106Z,6.97
2019-02-21T02:10:11.741Z,6.97
2019-02-21T02:13:24.127Z,6.85
2019-02-21T02:16:19.786Z,6.85
2019-02-21T02:19:22.363Z,6.72
2019-02-21T02:22:24.963Z,6.71
2019-02-21T02:25:27.630Z,6.64
2019-02-21T02:28:30.221Z,6.72
2019-02-21T02:31:32.802Z,6.72
2019-02-21T02:34:35.503Z,6.76
2019-02-21T02:37:38.151Z,6.81
2019-02-21T02:40:40.756Z,6.79
2019-02-21T02:43:43.324Z,6.74
2019-02-21T02:46:45.968Z,6.69
2019-02-21T02:49:48.515Z,6.66
2019-02-21T02:52:51.149Z,6.63
2019-02-21T02:55:53.779Z,6.60
2019-02-21T02:58:56.468Z,6.58
2019-02-21T03:01:59.075Z,6.54
2019-02-21T03:05:01.721Z,6.54
2019-02-21T03:08:04.446Z,6.50
2019-02-21T03:11:07.174Z,6.46
2019-02-21T03:14:09.857Z,6.54
2019-02-21T03:17:12.891Z,6.56
2019-02-21T03:20:15.535Z,6.53
2019-02-21T03:23:18.146Z,6.55
2019-02-21T03:26:20.901Z,6.49
2019-02-21T03:29:23.509Z,6.56
2019-02-21T03:32:26.197Z,6.49
2019-02-21T03:35:28.896Z,6.67
2019-02-21T03:38:35.056Z,6.63
2019-02-21T03:41:38.916Z,6.57
2019-02-21T03:44:41.547Z,6.53
2019-02-21T03:47:44.251Z,6.54
2019-02-21T03:50:46.994Z,6.54
2019-02-21T03:53:49.661Z,6.54
2019-02-21T03:56:52.400Z,6.57
2019-02-21T03:59:55.082Z,6.50
2019-02-21T04:02:57.709Z,6.39
2019-02-21T04:06:00.313Z,6.27
2019-02-21T04:09:04.875Z,6.19
2019-02-21T04:12:08.575Z,6.12
2019-02-21T04:15:12.405Z,6.14
2019-02-21T04:18:15.139Z,6.06
2019-02-21T04:21:18.617Z,6.02
2019-02-21T04:24:21.195Z,6.00
2019-02-21T04:27:23.767Z,6.01
2019-02-21T04:30:26.422Z,5.92
2019-02-21T04:33:29.045Z,5.96
2019-02-21T04:36:32.518Z,5.98
2019-02-21T04:39:35.066Z,6.11
2019-02-21T04:42:37.730Z,6.23
2019-02-21T04:45:40.601Z,6.27
2019-02-21T04:48:43.237Z,6.40
2019-02-21T04:51:45.956Z,6.41
2019-02-21T04:54:48.592Z,6.44
2019-02-21T04:57:51.244Z,6.51
2019-02-21T05:00:53.752Z,6.43
2019-02-21T05:03:56.362Z,6.44
2019-02-21T05:06:59.159Z,6.44
2019-02-21T05:10:03.265Z,6.45
2019-02-21T05:13:05.937Z,6.40
2019-02-21T05:16:08.466Z,6.44
2019-02-21T05:19:11.042Z,6.42
2019-02-21T05:22:13.783Z,6.36
2019-02-21T05:25:16.491Z,6.36
2019-02-21T05:28:41.161Z,6.40
2019-02-21T05:31:53.111Z,6.25
2019-02-21T05:35:14.199Z,6.06
2019-02-21T05:38:45.507Z,6.01
2019-02-21T05:42:06.952Z,5.92
2019-02-21T05:45:14.577Z,5.76
2019-02-21T05:48:28.900Z,5.71
2019-02-21T05:51:45.728Z,5.83
2019-02-21T05:55:07.867Z,5.91
2019-02-21T05:58:21.161Z,5.90
2019-02-21T06:01:55.375Z,5.99
2019-02-21T06:05:20.510Z,6.09
2019-02-21T06:08:49.039Z,6.06
2019-02-21T06:12:17.043Z,6.10
2019-02-21T06:15:47.455Z,6.13
2019-02-21T06:19:08.336Z,6.17
2019-02-21T06:22:22.142Z,6.10
2019-02-21T06:25:50.985Z,6.17
2019-02-21T06:29:00.249Z,6.21
2019-02-21T06:32:13.582Z,6.16
2019-02-21T06:35:07.565Z,6.20
2019-02-21T06:38:10.211Z,6.14
2019-02-21T06:41:12.870Z,6.08
2019-02-21T06:44:15.552Z,5.94
2019-02-21T06:47:18.250Z,5.84
2019-02-21T06:50:32.930Z,5.89
2019-02-21T06:53:39.577Z,5.98
2019-02-21T06:56:42.119Z,5.98
2019-02-21T06:59:48.377Z,5.92
2019-02-21T07:02:50.926Z,5.95
2019-02-21T07:05:54.447Z,5.95
2019-02-21T07:08:57.106Z,5.98
2019-02-21T07:11:59.760Z,6.02
2019-02-21T07:15:02.337Z,6.05
2019-02-21T07:18:05.085Z,6.16
2019-02-21T07:21:07.619Z,6.30
2019-02-21T07:24:10.272Z,6.43
2019-02-21T07:27:12.860Z,6.40
2019-02-21T07:30:20.033Z,6.37
2019-02-21T07:33:28.501Z,6.45
2019-02-21T07:36:24.678Z,6.49
2019-02-21T07:39:35.560Z,6.58
2019-02-21T07:42:31.852Z,6.45
2019-02-21T07:45:36.683Z,6.41
2019-02-21T07:48:39.415Z,6.27
2019-02-21T07:51:43.118Z,6.20
2019-02-21T07:54:49.500Z,6.39
2019-02-21T07:57:53.588Z,6.56
2019-02-21T08:00:57.156Z,6.85
2019-02-21T08:03:59.835Z,7.16
2019-02-21T08:07:02.666Z,7.23
2019-02-21T08:10:05.855Z,7.17
2019-02-21T08:13:08.586Z,7.28
2019-02-21T08:16:12.587Z,7.13
2019-02-21T08:19:15.387Z,7.25
2019-02-21T08:22:18.292Z,7.32
2019-02-21T08:25:20.915Z,7.22
2019-02-21T08:28:23.670Z,7.32
2019-02-21T08:31:26.440Z,7.29
2019-02-21T08:34:36.484Z,7.62
2019-02-21T08:37:39.003Z,7.53
2019-02-21T08:40:41.696Z,7.47
2019-02-21T08:43:44.409Z,7.57
2019-02-21T08:46:47.068Z,7.82
2019-02-21T08:49:50.899Z,7.97
2019-02-21T08:52:53.449Z,8.03
2019-02-21T08:55:58.353Z,8.20
2019-02-21T08:59:01.074Z,8.16
2019-02-21T09:02:05.092Z,8.43
2019-02-21T09:05:09.463Z,8.58
2019-02-21T09:08:12.335Z,8.75
2019-02-21T09:11:15.049Z,8.81
2019-02-21T09:14:17.714Z,8.85
2019-02-21T09:17:20.244Z,8.30
2019-02-21T09:20:23.020Z,8.46
2019-02-21T09:23:25.700Z,8.52
2019-02-21T09:26:28.274Z,8.68
2019-02-21T09:29:30.793Z,9.07
2019-02-21T09:32:33.446Z,9.26
2019-02-21T09:35:37.325Z,9.63
2019-02-21T09:38:40.043Z,9.59
2019-02-21T09:41:42.827Z,9.57
2019-02-21T09:44:49.673Z,9.63
2019-02-21T09:47:51.769Z,9.75
2019-02-21T09:50:56.226Z,9.64
2019-02-21T09:53:58.946Z,9.70
2019-02-21T09:57:12.414Z,9.61
2019-02-21T10:00:10.015Z,9.82
2019-02-21T10:03:12.555Z,9.97
2019-02-21T10:06:15.285Z,10.11
2019-02-21T10:09:17.826Z,10.05
2019-02-21T10:12:20.506Z,9.88
2019-02-21T10:15:23.164Z,9.68
2019-02-21T10:18:25.710Z,9.39
2019-02-21T10:21:28.340Z,9.77
2019-02-21T10:24:30.966Z,10.10
2019-02-21T10:27:33.592Z,10.22
2019-02-21T10:30:36.450Z,10.09
2019-02-21T10:33:46.560Z,9.89
2019-02-21T10:36:43.844Z,9.65
2019-02-21T10:39:47.896Z,9.50
2019-02-21T10:42:50.691Z,9.31
2019-02-21T10:45:53.277Z,9.24
2019-02-21T10:48:55.889Z,9.55
2019-02-21T10:51:58.480Z,9.72
2019-02-21T10:55:01.071Z,9.77
2019-02-21T10:58:06.236Z,9.62
2019-02-21T11:01:08.885Z,9.67
2019-02-21T11:04:11.490Z,9.64
2019-02-21T11:07:15.101Z,9.57
2019-02-21T11:10:20.769Z,9.61
2019-02-21T11:13:23.334Z,9.76
2019-02-21T11:16:26.036Z,9.95
2019-02-21T11:19:29.985Z,9.88
2019-02-21T11:22:32.621Z,9.92
2019-02-21T11:25:35.281Z,9.92
2019-02-21T11:28:37.914Z,10.28
2019-02-21T11:31:40.645Z,10.55
2019-02-21T11:34:43.344Z,10.51
2019-02-21T11:37:47.375Z,10.37
2019-02-21T11:40:50.389Z,10.59
2019-02-21T11:43:52.994Z,10.94
2019-02-21T11:46:55.550Z,10.97
2019-02-21T11:49:58.239Z,10.77
2019-02-21T11:53:00.840Z,10.99
2019-02-21T11:56:03.529Z,11.22
2019-02-21T11:59:06.164Z,11.19
2019-02-21T12:02:08.820Z,11.16
2019-02-21T12:05:17.451Z,11.54
2019-02-21T12:08:16.071Z,11.59
2019-02-21T12:11:18.974Z,11.32
2019-02-21T12:14:21.694Z,11.60
2019-02-21T12:17:24.280Z,11.75
2019-02-21T12:20:26.899Z,11.30
2019-02-21T12:23:29.696Z,11.49
2019-02-21T12:26:32.479Z,11.48
2019-02-21T12:29:35.160Z,11.39
2019-02-21T12:32:37.761Z,11.15
2019-02-21T12:35:40.552Z,11.46
2019-02-21T12:38:46.491Z,11.62
2019-02-21T12:41:49.328Z,11.62
2019-02-21T12:44:53.653Z,11.64
2019-02-21T12:47:56.284Z,11.69
2019-02-21T12:50:58.964Z,11.71
2019-02-21T12:54:01.688Z,11.51
2019-02-21T12:57:04.329Z,11.46
2019-02-21T13:00:10.260Z,11.46
2019-02-21T13:03:12.873Z,11.61
2019-02-21T13:06:15.456Z,11.40
2019-02-21T13:09:18.123Z,11.56
2019-02-21T13:12:20.896Z,11.56
2019-02-21T13:15:23.479Z,11.24
2019-02-21T13:18:26.258Z,11.48
2019-02-21T13:21:29.890Z,11.55
2019-02-21T13:24:32.518Z,11.89
2019-02-21T13:27:35.095Z,11.56
2019-02-21T13:30:39.234Z,11.52
2019-02-21T13:33:41.975Z,11.69
2019-02-21T13:36:44.639Z,12.04
2019-02-21T13:39:47.354Z,12.17
2019-02-21T13:42:50.979Z,12.31
2019-02-21T13:45:53.635Z,12.17
2019-02-21T13:48:56.414Z,12.01
2019-02-21T13:51:58.964Z,12.17
2019-02-21T13:55:01.715Z,11.96
2019-02-21T13:58:04.435Z,11.73
2019-02-21T14:01:07.113Z,11.71
2019-02-21T14:04:09.813Z,11.76
2019-02-21T14:07:12.393Z,11.66
2019-02-21T14:10:15.071Z,11.87
2019-02-21T14:13:17.956Z,11.74
2019-02-21T14:16:20.565Z,11.93
2019-02-21T14:19:23.133Z,11.79
2019-02-21T14:22:27.449Z,11.59
2019-02-21T14:25:40.308Z,11.56
2019-02-21T14:28:37.290Z,11.47
2019-02-21T14:31:39.206Z,11.44
2019-02-21T14:34:41.905Z,11.24
2019-02-21T14:37:44.596Z,11.03
2019-02-21T14:40:47.159Z,10.89
2019-02-21T14:43:49.853Z,10.75
2019-02-21T14:46:52.564Z,10.49
2019-02-21T14:49:55.257Z,10.58
2019-02-21T14:52:57.914Z,10.42
2019-02-21T14:56:00.460Z,10.35
2019-02-21T14:59:03.090Z,10.21
2019-02-21T15:02:06.219Z,10.20
2019-02-21T15:05:10.131Z,10.19
2019-02-21T15:08:18.163Z,10.29
2019-02-21T15:11:20.948Z,10.09
2019-02-21T15:14:24.544Z,10.11
2019-02-21T15:17:27.118Z,9.92
2019-02-21T15:20:36.698Z,9.96
2019-02-21T15:23:36.894Z,9.86
2019-02-21T15:26:38.684Z,9.71
2019-02-21T15:29:42.234Z,9.75
2019-02-21T15:32:45.173Z,9.64
2019-02-21T15:35:48.080Z,9.54
2019-02-21T15:38:50.654Z,9.56
2019-02-21T15:41:53.268Z,9.37
2019-02-21T15:44:55.994Z,9.42
2019-02-21T15:47:58.746Z,9.38
2019-02-21T15:51:01.470Z,9.38
2019-02-21T15:54:04.223Z,9.34
2019-02-21T15:57:06.870Z,9.35
2019-02-21T16:00:11.386Z,9.39
2019-02-21T16:03:14.057Z,9.30
2019-02-21T16:06:16.760Z,9.37
2019-02-21T16:09:19.422Z,9.32
2019-02-21T16:12:22.464Z,9.44
2019-02-21T16:15:25.328Z,9.50
2019-02-21T16:18:28.044Z,9.52
2019-02-21T16:21:30.740Z,9.44
2019-02-21T16:24:33.415Z,9.51
2019-02-21T16:27:36.052Z,9.50
2019-02-21T16:30:38.738Z,9.68
2019-02-21T16:33:41.572Z,9.65
2019-02-21T16:36:44.164Z,9.62
2019-02-21T16:39:46.758Z,9.67
2019-02-21T16:42:49.348Z,9.70
2019-02-21T16:45:53.857Z,9.67
2019-02-21T16:48:56.493Z,9.69
2019-02-21T16:51:59.218Z,9.74
2019-02-21T16:55:03.015Z,9.72
2019-02-21T16:58:05.677Z,9.78
2019-02-21T17:01:08.515Z,9.77
2019-02-21T17:04:11.053Z,9.80
2019-02-21T17:07:19.819Z,9.81
2019-02-21T17:10:18.159Z,9.82
2019-02-21T17:13:20.826Z,9.80
2019-02-21T17:16:23.570Z,9.89
2019-02-21T17:19:26.179Z,9.83
2019-02-21T17:22:28.823Z,9.85
2019-02-21T17:25:31.537Z,9.86
2019-02-21T17:28:34.153Z,9.90
2019-02-21T17:31:37.356Z,9.91
2019-02-21T17:34:40.187Z,9.94
2019-02-21T17:37:42.875Z,9.91
2019-02-21T17:40:45.630Z,9.95
2019-02-21T17:43:48.320Z,10.04
2019-02-21T17:46:50.983Z,10.00
2019-02-21T17:49:53.565Z,9.93
2019-02-21T17:52:56.245Z,9.99
2019-02-21T17:55:58.920Z,9.91
2019-02-21T17:59:01.525Z,9.88
2019-02-21T18:02:04.255Z,9.82
2019-02-21T18:05:07.388Z,9.75
2019-02-21T18:08:10.045Z,9.75
2019-02-21T18:11:12.854Z,9.74
2019-02-21T18:14:15.446Z,9.68
2019-02-21T18:17:18.238Z,9.62
2019-02-21T18:20:20.888Z,9.61
2019-02-21T18:23:23.624Z,9.52
2019-02-21T18:26:26.233Z,9.49
2019-02-21T18:29:28.856Z,9.50
2019-02-21T18:32:33.325Z,9.48
2019-02-21T18:35:35.987Z,9.40
2019-02-21T18:38:38.682Z,9.42
2019-02-21T18:41:41.623Z,9.45
2019-02-21T18:44:44.604Z,9.38
2019-02-21T18:47:47.453Z,9.37
2019-02-21T18:50:50.353Z,9.39
2019-02-21T18:53:53.179Z,9.29
2019-02-21T18:56:57.143Z,9.38
2019-02-21T19:00:00.234Z,9.33
2019-02-21T19:03:04.305Z,9.34
2019-02-21T19:06:08.234Z,9.29
2019-02-21T19:09:11.036Z,9.27
2019-02-21T19:12:13.868Z,9.25
2019-02-21T19:15:17.475Z,9.30
2019-02-21T19:18:20.078Z,9.29
2019-02-21T19:21:22.766Z,9.27
2019-02-21T19:24:25.431Z,9.26
2019-02-21T19:27:36.865Z,9.20
2019-02-21T19:30:39.004Z,9.23
2019-02-21T19:33:42.123Z,9.19
2019-02-21T19:36:44.952Z,9.17
2019-02-21T19:39:47.598Z,9.22
2019-02-21T19:42:50.617Z,9.16
2019-02-21T19:45:53.361Z,9.09
2019-02-21T19:48:56.208Z,9.09
2019-02-21T19:51:58.849Z,9.07
2019-02-21T19:55:01.479Z,9.03
2019-02-21T19:58:06.007Z,9.01
2019-02-21T20:01:08.812Z,9.03
2019-02-21T20:04:11.407Z,9.08
2019-02-21T20:07:14.081Z,9.05
2019-02-21T20:10:16.988Z,9.14
2019-02-21T20:13:19.749Z,9.08
2019-02-21T20:16:22.713Z,9.09
2019-02-21T20:19:25.328Z,9.09
2019-02-21T20:22:28.185Z,9.10
2019-02-21T20:25:30.873Z,9.06
2019-02-21T20:28:33.463Z,9.06
2019-02-21T20:31:36.218Z,9.03
2019-02-21T20:34:38.873Z,9.00
2019-02-21T20:37:43.579Z,9.05
2019-02-21T20:40:46.362Z,9.09
2019-02-21T20:43:48.996Z,9.07
2019-02-21T20:46:51.658Z,9.06
2019-02-21T20:49:54.485Z,9.06
2019-02-21T20:52:57.218Z,9.12
2019-02-21T20:56:01.853Z,9.16
2019-02-21T20:59:04.838Z,9.16
2019-02-21T21:02:08.067Z,9.12
2019-02-21T21:05:11.036Z,9.17
2019-02-21T21:08:13.601Z,9.19
2019-02-21T21:11:16.301Z,9.21
2019-02-21T21:14:18.989Z,9.12
2019-02-21T21:17:24.014Z,9.16
2019-02-21T21:20:27.669Z,9.20
2019-02-21T21:23:32.813Z,9.20
2019-02-21T21:26:35.503Z,9.24
2019-02-21T21:29:38.153Z,9.22
2019-02-21T21:32:40.823Z,9.22
2019-02-21T21:35:43.418Z,9.17
2019-02-21T21:38:53.649Z,9.29
2019-02-21T21:41:50.991Z,9.16
2019-02-21T21:44:53.810Z,9.10
2019-02-21T21:47:57.403Z,9.14
2019-02-21T21:51:00.290Z,9.09
2019-02-21T21:54:03.846Z,9.17
2019-02-21T21:57:06.511Z,9.20
2019-02-21T22:00:13.106Z,9.15
2019-02-21T22:03:17.377Z,9.16
2019-02-21T22:06:20.011Z,9.12
2019-02-21T22:09:22.863Z,9.08
2019-02-21T22:12:25.617Z,9.14
2019-02-21T22:15:28.336Z,9.05
2019-02-21T22:18:31.148Z,8.96
2019-02-21T22:21:35.952Z,9.00
2019-02-21T22:24:38.761Z,8.93
2019-02-21T22:27:41.547Z,9.04
2019-02-21T22:30:44.157Z,8.96
2019-02-21T22:33:46.916Z,8.96
2019-02-21T22:36:49.618Z,8.96
2019-02-21T22:39:52.306Z,8.95
2019-02-21T22:42:55.034Z,8.94
2019-02-21T22:45:57.642Z,8.94
2019-02-21T22:49:00.455Z,8.91
2019-02-21T22:52:03.013Z,8.89
2019-02-21T22:55:09.725Z,8.90
2019-02-21T22:58:10.411Z,8.89
2019-02-21T23:01:28.594Z,8.78
2019-02-21T23:05:20.960Z,8.81
2019-02-21T23:08:52.430Z,8.76
2019-02-21T23:11:55.192Z,8.72
2019-02-21T23:14:57.821Z,8.66
2019-02-21T23:18:00.397Z,8.63
2019-02-21T23:21:04.178Z,8.59
2019-02-21T23:24:06.715Z,8.59
2019-02-21T23:27:09.520Z,8.60
2019-02-21T23:30:12.847Z,8.55
2019-02-21T23:33:15.622Z,8.58
2019-02-21T23:36:18.206Z,8.59
2019-02-21T23:39:20.827Z,8.58
2019-02-21T23:42:23.394Z,8.53
2019-02-21T23:45:25.992Z,8.58
2019-02-21T23:48:28.632Z,8.51
2019-02-21T23:51:31.422Z,8.53
2019-02-21T23:54:33.956Z,8.43
2019-02-21T23:57:36.673Z,8.41
